createdAt,value
2019-02-21T00:27:38.068Z,35.07
2019-02-21T00:57:43.061Z,45.77
2019-02-21T01:27:48.484Z,31.53
2019-02-21T01:57:53.736Z,35.43
2019-02-21T02:27:58.989Z,20.43
2019-02-21T02:58:06.371Z,20.50
2019-02-21T03:28:11.512Z,28.93
2019-02-21T03:58:16.586Z,22.60
2019-02-21T04:28:22.173Z,23.40
2019-02-21T04:58:27.250Z,21.80
2019-02-21T05:28:34.974Z,23.97
2019-02-21T05:58:57.277Z,21.20
2019-02-21T06:29:05.420Z,25.80
2019-02-21T06:59:10.288Z,28.43
2019-02-21T07:29:15.187Z,32.57
2019-02-21T07:59:20.714Z,32.37
2019-02-21T08:29:26.040Z,31.67
2019-02-21T08:59:31.271Z,31.87
2019-02-21T09:29:36.295Z,45.80
2019-02-21T09:59:41.396Z,29.50
2019-02-21T10:29:46.288Z,32.73
2019-02-21T10:59:51.845Z,41.73
2019-02-21T11:29:56.716Z,42.27
2019-02-21T12:00:01.596Z,31.30
2019-02-21T12:30:10.541Z,33.27
2019-02-21T13:00:17.887Z,77.30
2019-02-21T13:30:22.985Z,49.40
2019-02-21T14:00:28.097Z,70.60
2019-02-21T14:30:32.974Z,54.27
2019-02-21T15:00:42.798Z,69.73
2019-02-21T15:30:47.648Z,42.57
2019-02-21T16:00:53.121Z,109.63
2019-02-21T16:30:57.996Z,84.03
2019-02-21T17:01:03.513Z,114.77
2019-02-21T17:31:08.393Z,123.80
2019-02-21T18:01:13.332Z,125.07
2019-02-21T18:31:18.578Z,75.60
2019-02-21T19:01:23.512Z,94.67
2019-02-21T19:31:28.679Z,58.27
2019-02-21T20:01:34.033Z,10.50
2019-02-21T20:31:38.900Z,7.90
2019-02-21T21:01:44.637Z,14.07
2019-02-21T21:31:49.538Z,13.17
2019-02-21T22:01:55.921Z,14.07
2019-02-21T22:32:00.845Z,8.20
2019-02-21T23:02:06.575Z,9.90
2019-02-21T23:32:11.513Z,12.40
